DTTX/SFA METAR and TAF weather

Enter ICAO airport designator
Station Type Date Time Source
DTTX METAR 2019/07/17 18:00 UTC NOAA

DTTX 171800Z 11010KT CAVOK 27/19 Q1012


Station Type Date Time Source
DTTX Decoded METAR 2019/07/17 18:00 UTC NOAA

Sfax El-Maou, Tunisia (DTTX) 34-43N 010-41E 23M
Jul 17, 2019 - 02:00 PM EDT / 2019.07.17 1800 UTC
Wind: from the ESE (110 degrees) at 12 MPH (10 KT):0
Visibility: greater than 7 mile(s):0
Temperature: 80 F (27 C)
Dew Point: 66 F (19 C)
Relative Humidity: 61%
Pressure (altimeter): 29.88 in. Hg (1012 hPa)
ob: DTTX 171800Z 11010KT CAVOK 27/19 Q1012
cycle: 18

Station Type Date Time Source
DTTX TAF 2019/07/17 18:51 UTC NOAA

TAF DTTX 171700Z 1718/1818 12011KT 9999 FEW020
BECMG 1720/1722 14005KT
BECMG 1810/1812 16012KT

Example: see airport list